Time;durP1;ratioP1;P1;durP2;ratioP2;P2;SDS_P1;SDS_P2;PMS_P1;PMS_P2;Temp;Humidity;BMP_temperature;BMP_pressure;BME280_temperature;BME280_humidity;BME280_pressure;Samples;Min_cycle;Max_cycle;Signal;HPM_P1;HPM_P2
2021/05/17 00:00:37;;;;;;;2.67;1.02;;;27.50;27.10;;;;;;4326322;33;20058;-31
2021/05/17 00:03:05;;;;;;;7.22;1.75;;;27.50;27.00;;;;;;4314215;33;20074;-34
2021/05/17 00:05:32;;;;;;;28.30;2.80;;;27.50;27.40;;;;;;4326272;33;20094;-33
2021/05/17 00:07:59;;;;;;;8.40;1.55;;;27.50;27.50;;;;;;4325800;33;20460;-34
2021/05/17 00:10:27;;;;;;;8.15;1.40;;;27.50;27.50;;;;;;4326297;33;20089;-32
2021/05/17 00:12:53;;;;;;;1.52;1.08;;;27.50;27.70;;;;;;4313810;33;20152;-31
2021/05/17 00:15:21;;;;;;;2.90;1.10;;;27.50;27.70;;;;;;4326231;33;20154;-34
2021/05/17 00:17:47;;;;;;;7.57;1.95;;;27.40;27.80;;;;;;4326425;33;20160;-31
2021/05/17 00:20:17;;;;;;;5.45;1.20;;;27.20;27.80;;;;;;4325509;33;20062;-30
2021/05/17 00:22:44;;;;;;;5.72;1.48;;;27.20;28.00;;;;;;4325992;33;20059;-32
2021/05/17 00:25:11;;;;;;;5.47;1.48;;;27.10;28.10;;;;;;4334188;32;20066;-31
2021/05/17 00:27:38;;;;;;;1.90;0.85;;;27.10;28.20;;;;;;4343682;32;20510;-32
2021/05/17 00:30:07;;;;;;;4.45;1.27;;;27.00;28.20;;;;;;4355952;32;20153;-32
2021/05/17 00:32:33;;;;;;;7.97;1.10;;;27.00;28.30;;;;;;4358344;32;20058;-35
2021/05/17 00:35:00;;;;;;;1.58;1.05;;;27.00;28.60;;;;;;4331774;32;20633;-36
2021/05/17 00:37:26;;;;;;;4.97;1.48;;;26.90;28.40;;;;;;4344355;32;20212;-36
2021/05/17 00:39:53;;;;;;;4.90;2.20;;;26.90;28.50;;;;;;4344331;32;20170;-34
2021/05/17 00:42:20;;;;;;;8.10;1.00;;;26.80;28.70;;;;;;4357944;32;20100;-31
2021/05/17 00:44:46;;;;;;;4.30;1.10;;;26.80;28.50;;;;;;4344231;32;20089;-32
2021/05/17 00:47:14;;;;;;;7.18;1.50;;;26.80;28.60;;;;;;4343813;32;20079;-33
2021/05/17 00:49:42;;;;;;;3.60;1.27;;;26.70;29.10;;;;;;4358031;32;20070;-31
2021/05/17 00:52:10;;;;;;;4.45;1.10;;;26.60;28.50;;;;;;4358440;32;20154;-31
2021/05/17 00:54:37;;;;;;;2.40;1.00;;;26.50;28.50;;;;;;4358129;32;20062;-32
2021/05/17 00:57:06;;;;;;;7.70;1.20;;;26.40;28.70;;;;;;4357735;32;20190;-31
2021/05/17 00:59:33;;;;;;;4.05;1.20;;;26.40;28.90;;;;;;4358038;32;20085;-31
2021/05/17 01:02:00;;;;;;;4.80;1.10;;;26.40;28.90;;;;;;4358207;32;20525;-34
2021/05/17 01:04:26;;;;;;;7.50;1.08;;;26.40;28.80;;;;;;4343605;32;20081;-33
2021/05/17 01:06:53;;;;;;;15.57;2.50;;;26.50;28.80;;;;;;4343737;32;20081;-31
2021/05/17 01:09:19;;;;;;;13.52;2.00;;;26.50;28.80;;;;;;4357846;32;20537;-32
2021/05/17 01:11:46;;;;;;;7.20;1.62;;;26.60;29.10;;;;;;4344117;32;20622;-32
2021/05/17 01:14:13;;;;;;;8.88;2.17;;;26.60;28.50;;;;;;4344044;32;20458;-31
2021/05/17 01:16:41;;;;;;;11.10;1.95;;;26.60;28.90;;;;;;4358223;32;20517;-34
2021/05/17 01:19:11;;;;;;;9.68;1.62;;;26.70;28.50;;;;;;4311001;33;20586;-32
2021/05/17 01:21:39;;;;;;;12.65;2.35;;;26.70;28.00;;;;;;4310819;33;20075;-30
2021/05/17 01:24:06;;;;;;;14.43;2.22;;;26.80;28.10;;;;;;4311235;33;20534;-31
2021/05/17 01:26:36;;;;;;;28.98;5.53;;;26.90;28.20;;;;;;4299127;33;20064;-34
2021/05/17 01:29:06;;;;;;;11.50;3.17;;;26.90;28.20;;;;;;4311256;33;20548;-31
2021/05/17 01:31:33;;;;;;;16.55;4.62;;;27.00;28.20;;;;;;4312570;33;20065;-32
2021/05/17 01:33:59;;;;;;;18.62;3.00;;;27.10;28.70;;;;;;4313956;33;20075;-32
2021/05/17 01:36:26;;;;;;;16.10;2.55;;;27.20;28.10;;;;;;4313639;33;20079;-30
2021/05/17 01:38:55;;;;;;;17.40;3.97;;;27.30;27.80;;;;;;4313572;33;20060;-32
2021/05/17 01:41:23;;;;;;;8.35;2.60;;;27.50;28.20;;;;;;4313596;33;20059;-31
2021/05/17 01:43:54;;;;;;;32.47;4.12;;;27.80;28.00;;;;;;4313183;33;20070;-32
2021/05/17 01:46:20;;;;;;;26.75;6.53;;;28.10;28.00;;;;;;4313665;33;20056;-32
2021/05/17 01:48:47;;;;;;;14.25;3.42;;;28.50;28.00;;;;;;4313832;33;20095;-31
2021/05/17 01:51:16;;;;;;;29.87;6.18;;;28.80;27.50;;;;;;4301797;33;20094;-32
2021/05/17 01:53:44;;;;;;;16.25;3.15;;;29.00;27.30;;;;;;4313935;33;20118;-31
2021/05/17 01:56:11;;;;;;;18.98;3.20;;;29.30;27.40;;;;;;4328877;32;20061;-31
2021/05/17 01:58:38;;;;;;;13.68;2.50;;;29.60;27.50;;;;;;4346414;32;20107;-30
2021/05/17 02:01:09;;;;;;;11.60;4.10;;;29.90;27.00;;;;;;4345168;33;20067;-31
2021/05/17 02:03:37;;;;;;;35.45;7.20;;;30.20;26.80;;;;;;4345047;33;20059;-32
2021/05/17 02:06:05;;;;;;;24.73;5.28;;;30.40;27.20;;;;;;4345074;33;20087;-31
2021/05/17 02:08:32;;;;;;;11.52;3.60;;;30.60;27.30;;;;;;4331485;33;20071;-32
2021/05/17 02:10:59;;;;;;;21.73;5.32;;;30.90;26.80;;;;;;4344845;33;20165;-32
2021/05/17 02:13:27;;;;;;;13.88;3.08;;;31.10;27.00;;;;;;4330941;33;20086;-31
2021/05/17 02:15:53;;;;;;;17.30;3.15;;;31.40;26.60;;;;;;4344955;33;20175;-31
2021/05/17 02:18:20;;;;;;;15.93;3.17;;;31.60;26.20;;;;;;4331617;33;20511;-31
2021/05/17 02:20:47;;;;;;;12.70;2.83;;;31.80;25.60;;;;;;4345166;33;20185;-32
2021/05/17 02:23:16;;;;;;;10.57;2.42;;;32.10;25.30;;;;;;4345129;33;20106;-30
2021/05/17 02:25:48;;;;;;;18.85;3.60;;;32.30;24.90;;;;;;4344994;33;20071;-30
2021/05/17 02:28:15;;;;;;;12.85;2.97;;;32.30;25.10;;;;;;4345342;33;20138;-32
2021/05/17 02:30:42;;;;;;;18.60;3.70;;;32.40;25.50;;;;;;4344778;33;20086;-31
2021/05/17 02:33:09;;;;;;;18.83;4.22;;;32.40;25.50;;;;;;4344748;33;20105;-30
2021/05/17 02:35:36;;;;;;;16.90;3.55;;;32.40;25.70;;;;;;4344843;33;20070;-31
2021/05/17 02:38:03;;;;;;;26.05;5.30;;;32.30;25.60;;;;;;4344564;33;20066;-32
2021/05/17 02:40:30;;;;;;;29.63;4.10;;;32.30;25.70;;;;;;4344718;33;20175;-31
2021/05/17 02:43:04;;;;;;;16.62;3.62;;;32.20;25.30;;;;;;4344004;32;20641;-37
2021/05/17 02:45:30;;;;;;;26.15;3.60;;;32.10;25.20;;;;;;4344625;33;20512;-37
2021/05/17 02:47:58;;;;;;;19.73;4.15;;;32.00;25.50;;;;;;4330948;33;20082;-37
2021/05/17 02:50:42;;;;;;;12.50;2.80;;;32.00;25.80;;;;;;4344951;33;20141;-32
2021/05/17 02:53:37;;;;;;;13.10;2.33;;;32.00;25.90;;;;;;4344774;33;20092;-31
2021/05/17 02:56:08;;;;;;;;;;;32.00;25.50;;;;;;4344907;33;20054;-34
2021/05/17 02:58:39;;;;;;;11.38;3.15;;;32.20;25.60;;;;;;4357664;32;20046;-32
2021/05/17 03:01:26;;;;;;;8.82;1.83;;;32.50;25.40;;;;;;4359269;32;20072;-32
2021/05/17 03:03:53;;;;;;;8.50;2.45;;;32.80;25.00;;;;;;4346192;32;20099;-32
2021/05/17 03:06:33;;;;;;;12.98;4.05;;;33.20;24.90;;;;;;4359545;32;20074;-34
2021/05/17 03:09:08;;;;;;;23.38;3.22;;;33.70;24.50;;;;;;4358739;32;20481;-34
2021/05/17 03:11:42;;;;;;;10.50;2.75;;;34.30;24.20;;;;;;4345548;32;20086;-31
2021/05/17 03:14:13;;;;;;;13.73;3.12;;;34.80;23.90;;;;;;4359237;32;20128;-32
2021/05/17 03:16:40;;;;;;;9.27;2.65;;;35.30;23.70;;;;;;4358944;32;20204;-34
2021/05/17 03:19:06;;;;;;;8.25;2.10;;;35.80;23.30;;;;;;4332916;32;20513;-31
2021/05/17 03:21:33;;;;;;;11.12;2.55;;;36.20;23.10;;;;;;4345210;32;20070;-33
2021/05/17 03:23:59;;;;;;;8.57;2.42;;;36.70;22.80;;;;;;4332607;32;20508;-32
2021/05/17 03:26:26;;;;;;;9.45;2.00;;;37.20;22.70;;;;;;4359054;32;20520;-30
2021/05/17 03:28:53;;;;;;;12.45;2.12;;;37.50;22.10;;;;;;4345277;32;20086;-32
2021/05/17 03:31:19;;;;;;;9.60;2.12;;;37.90;22.10;;;;;;4359155;32;20065;-32
2021/05/17 03:33:46;;;;;;;7.62;2.22;;;38.20;22.00;;;;;;4358655;32;20069;-31
2021/05/17 03:36:12;;;;;;;8.05;2.42;;;38.40;21.80;;;;;;4359042;32;20559;-32
2021/05/17 03:38:39;;;;;;;11.68;2.78;;;38.70;21.70;;;;;;4358338;32;20078;-33
2021/05/17 03:41:06;;;;;;;4.65;1.90;;;39.00;21.50;;;;;;4358737;32;20521;-31
2021/05/17 03:43:33;;;;;;;6.25;2.25;;;39.30;21.40;;;;;;4345051;32;20082;-32
2021/05/17 03:46:00;;;;;;;10.52;2.97;;;39.50;21.10;;;;;;4358448;32;20077;-31
2021/05/17 03:48:26;;;;;;;10.07;2.20;;;39.80;21.50;;;;;;4344692;32;20069;-31
2021/05/17 03:50:53;;;;;;;11.50;1.75;;;40.00;21.10;;;;;;4358735;32;20491;-32
2021/05/17 03:53:20;;;;;;;8.93;1.45;;;40.20;20.90;;;;;;4358573;32;20055;-31
2021/05/17 03:55:46;;;;;;;7.95;1.83;;;40.40;20.60;;;;;;4358638;32;20093;-32
2021/05/17 03:58:13;;;;;;;6.72;1.98;;;40.60;20.60;;;;;;4347248;32;20647;-30
2021/05/17 04:00:40;;;;;;;9.73;2.55;;;40.80;20.70;;;;;;4343651;33;20146;-31
2021/05/17 04:03:16;;;;;;;2.95;1.58;;;41.00;20.70;;;;;;4343629;33;20066;-30
2021/05/17 04:05:56;;;;;;;13.10;2.05;;;41.20;20.40;;;;;;4343148;33;20511;-33
2021/05/17 04:13:57;;;;;;;14.15;2.10;;;41.70;20.70;;;;;;4311037;33;20550;-32
2021/05/17 04:16:23;;;;;;;5.37;1.60;;;41.80;20.90;;;;;;4312065;33;20138;-34
2021/05/17 04:18:51;;;;;;;7.37;2.17;;;41.90;20.80;;;;;;4311739;33;20075;-30
2021/05/17 04:21:18;;;;;;;9.25;1.92;;;42.00;20.50;;;;;;4296198;33;20095;-30
2021/05/17 04:23:47;;;;;;;2.72;1.40;;;42.20;20.40;;;;;;4296919;33;20178;-30
2021/05/17 04:26:13;;;;;;;5.85;2.40;;;42.30;20.20;;;;;;4296910;33;20213;-34
2021/05/17 04:28:40;;;;;;;5.87;2.40;;;42.40;20.20;;;;;;4297134;33;20066;-31
2021/05/17 04:31:06;;;;;;;7.47;1.85;;;42.60;20.40;;;;;;4297092;33;20598;-31
2021/05/17 04:33:32;;;;;;;5.97;1.98;;;42.70;20.20;;;;;;4296589;33;20064;-30
2021/05/17 04:36:00;;;;;;;5.37;1.75;;;42.90;20.30;;;;;;4296633;33;20084;-31
2021/05/17 04:38:26;;;;;;;5.35;2.05;;;42.90;20.30;;;;;;4297094;33;20511;-30
2021/05/17 04:40:53;;;;;;;7.75;1.67;;;43.10;20.60;;;;;;4297022;33;20060;-31
2021/05/17 04:43:19;;;;;;;4.72;1.87;;;43.20;20.00;;;;;;4325862;33;20531;-33
2021/05/17 04:45:46;;;;;;;5.25;1.80;;;43.30;20.10;;;;;;4313584;33;20110;-32
2021/05/17 04:48:12;;;;;;;8.75;1.92;;;43.40;20.10;;;;;;4326130;33;20166;-37
2021/05/17 04:50:39;;;;;;;7.72;1.62;;;43.50;20.10;;;;;;4313825;33;20074;-35
2021/05/17 04:53:05;;;;;;;7.47;1.58;;;43.50;19.90;;;;;;4327769;33;20091;-33
2021/05/17 04:55:32;;;;;;;8.93;2.25;;;43.60;20.20;;;;;;4328538;33;20060;-31
2021/05/17 04:57:58;;;;;;;5.28;1.40;;;43.60;20.20;;;;;;4337353;33;20095;-30
2021/05/17 05:00:25;;;;;;;5.55;2.05;;;43.60;19.80;;;;;;4341756;33;20145;-30
2021/05/17 05:02:51;;;;;;;10.13;2.08;;;43.60;20.20;;;;;;4342880;32;20063;-33
2021/05/17 05:05:18;;;;;;;9.80;2.47;;;43.70;19.80;;;;;;4343262;32;20195;-32
2021/05/17 05:07:45;;;;;;;7.05;1.45;;;43.70;20.00;;;;;;4345995;32;20086;-31
2021/05/17 05:10:11;;;;;;;4.37;2.10;;;43.70;20.00;;;;;;4345699;32;20058;-36
2021/05/17 05:12:38;;;;;;;8.80;1.77;;;43.80;19.90;;;;;;4345860;32;20151;-31
2021/05/17 05:15:08;;;;;;;6.03;1.77;;;43.90;20.00;;;;;;4358939;32;20442;-31
2021/05/17 05:17:34;;;;;;;11.63;2.92;;;44.00;20.00;;;;;;4360706;32;20070;-31
2021/05/17 05:20:01;;;;;;;12.80;2.30;;;44.00;20.10;;;;;;4360370;32;20093;-32
2021/05/17 05:22:27;;;;;;;6.32;2.05;;;44.10;20.00;;;;;;4360902;32;20533;-32
2021/05/17 05:24:56;;;;;;;5.45;1.95;;;44.10;19.90;;;;;;4360920;32;20058;-34
2021/05/17 05:27:31;;;;;;;5.50;1.98;;;44.10;20.00;;;;;;4346955;32;20086;-31
2021/05/17 05:32:52;;;;;;;10.20;1.90;;;44.20;20.10;;;;;;4360567;32;20516;-31
2021/05/17 05:35:19;;;;;;;6.72;1.60;;;44.20;20.10;;;;;;4360365;32;20172;-31
2021/05/17 05:37:45;;;;;;;7.65;2.45;;;44.20;20.00;;;;;;4346642;32;20069;-30
2021/05/17 05:40:13;;;;;;;5.87;2.15;;;44.40;20.10;;;;;;4360318;32;20058;-31
2021/05/17 05:42:39;;;;;;;6.50;1.50;;;44.40;20.00;;;;;;4346764;32;20170;-33
2021/05/17 05:45:10;;;;;;;11.75;2.45;;;44.30;19.80;;;;;;4359827;32;20179;-33
2021/05/17 05:47:37;;;;;;;7.93;2.28;;;44.30;20.00;;;;;;4360337;32;20097;-33
2021/05/17 05:50:04;;;;;;;6.07;1.85;;;44.30;20.10;;;;;;4346022;32;20089;-31
2021/05/17 05:52:30;;;;;;;9.32;2.55;;;44.30;20.40;;;;;;4346034;32;20074;-33
2021/05/17 05:55:04;;;;;;;11.55;2.10;;;44.40;20.40;;;;;;4360681;32;20147;-33
2021/05/17 05:57:37;;;;;;;6.15;2.15;;;44.20;20.50;;;;;;4353186;32;20054;-31
2021/05/17 06:00:06;;;;;;;5.87;2.10;;;44.20;20.40;;;;;;4345127;33;20471;-31
2021/05/17 06:02:33;;;;;;;6.53;2.10;;;44.20;20.50;;;;;;4344732;33;20074;-31
2021/05/17 06:04:59;;;;;;;10.23;1.75;;;44.20;20.50;;;;;;4345249;33;20174;-31
2021/05/17 06:07:26;;;;;;;8.95;2.87;;;44.10;20.60;;;;;;4345412;33;20074;-31
2021/05/17 06:09:52;;;;;;;8.80;2.35;;;44.00;20.70;;;;;;4344605;33;20074;-31
2021/05/17 06:12:19;;;;;;;10.18;1.80;;;44.00;20.70;;;;;;4345390;33;20147;-31
2021/05/17 06:14:48;;;;;;;11.43;2.47;;;43.90;20.90;;;;;;4345019;33;20055;-32
2021/05/17 06:17:15;;;;;;;12.35;2.30;;;44.00;20.80;;;;;;4330267;33;20070;-31
2021/05/17 06:19:42;;;;;;;9.80;2.40;;;44.10;20.70;;;;;;4344505;33;20058;-31
2021/05/17 06:22:09;;;;;;;6.65;2.40;;;44.10;20.50;;;;;;4344880;33;20162;-31
2021/05/17 06:24:36;;;;;;;6.47;2.25;;;44.10;20.50;;;;;;4344653;33;20476;-30
2021/05/17 06:27:03;;;;;;;5.22;2.22;;;44.00;20.50;;;;;;4344833;33;20073;-32
2021/05/17 06:29:30;;;;;;;4.97;2.03;;;43.80;20.70;;;;;;4330983;33;20082;-31
2021/05/17 06:31:56;;;;;;;10.13;2.08;;;43.70;21.00;;;;;;4344261;33;20090;-31
2021/05/17 06:34:23;;;;;;;7.90;2.03;;;43.60;20.90;;;;;;4344532;33;20538;-31
2021/05/17 06:36:49;;;;;;;5.93;1.77;;;43.40;20.70;;;;;;4344746;33;20156;-30
2021/05/17 06:39:16;;;;;;;5.57;1.92;;;43.30;20.90;;;;;;4344770;33;20102;-30
2021/05/17 06:41:43;;;;;;;9.55;2.40;;;43.00;21.00;;;;;;4344446;33;20073;-31
2021/05/17 06:44:10;;;;;;;9.32;2.00;;;42.80;21.10;;;;;;4312181;33;20087;-30
2021/05/17 06:46:37;;;;;;;8.13;2.05;;;42.70;21.30;;;;;;4312830;33;20063;-30
2021/05/17 06:49:06;;;;;;;6.80;1.87;;;42.50;21.30;;;;;;4312901;33;20071;-30
2021/05/17 06:51:32;;;;;;;6.93;2.15;;;42.40;21.30;;;;;;4312872;33;20528;-33
2021/05/17 06:54:01;;;;;;;5.90;1.73;;;42.20;21.20;;;;;;4313119;33;20189;-30
2021/05/17 06:59:18;;;;;;;7.18;2.17;;;41.90;21.40;;;;;;4294855;33;20070;-31
2021/05/17 07:01:45;;;;;;;7.12;2.25;;;41.70;21.40;;;;;;4315138;33;20100;-30
2021/05/17 07:04:15;;;;;;;13.75;2.62;;;41.60;21.50;;;;;;4326576;33;20075;-31
2021/05/17 07:06:49;;;;;;;5.57;1.98;;;41.50;21.70;;;;;;4327264;33;20074;-32
2021/05/17 07:12:09;;;;;;;6.07;1.83;;;41.60;21.60;;;;;;4326898;33;19963;-30
2021/05/17 07:14:36;;;;;;;8.18;2.40;;;41.70;21.70;;;;;;4327063;33;20056;-30
2021/05/17 07:17:02;;;;;;;14.38;3.00;;;41.70;21.70;;;;;;4315274;33;20067;-30
2021/05/17 07:19:29;;;;;;;9.50;1.90;;;41.70;22.00;;;;;;4326762;33;20636;-30
2021/05/17 07:24:40;;;;;;;8.98;2.47;;;41.80;22.00;;;;;;4356407;32;20114;-34
2021/05/17 07:27:06;;;;;;;7.53;2.60;;;41.80;21.80;;;;;;4356295;32;20082;-32
2021/05/17 07:29:36;;;;;;;9.98;2.35;;;41.80;21.80;;;;;;4356265;32;20569;-31
2021/05/17 07:32:05;;;;;;;7.53;2.15;;;41.90;21.90;;;;;;4344671;32;20549;-31
2021/05/17 07:34:34;;;;;;;9.50;2.75;;;41.90;21.60;;;;;;4356695;32;20073;-32
2021/05/17 07:37:05;;;;;;;7.78;2.05;;;41.80;21.70;;;;;;4343735;32;20091;-31
2021/05/17 07:39:31;;;;;;;5.93;2.42;;;41.70;21.80;;;;;;4344306;32;20163;-32
2021/05/17 07:41:58;;;;;;;10.07;3.00;;;41.70;21.80;;;;;;4357872;32;20054;-35
2021/05/17 07:44:24;;;;;;;10.77;2.58;;;41.80;21.70;;;;;;4358310;32;20069;-31
2021/05/17 07:46:51;;;;;;;11.20;2.53;;;41.70;21.80;;;;;;4358693;32;20148;-33
2021/05/17 07:49:20;;;;;;;5.10;2.60;;;41.70;21.90;;;;;;4358737;32;20148;-30
2021/05/17 07:51:47;;;;;;;5.05;2.62;;;41.60;22.10;;;;;;4345199;32;20109;-30
2021/05/17 07:54:17;;;;;;;10.25;2.40;;;41.60;22.10;;;;;;4358559;32;20103;-32
2021/05/17 07:56:43;;;;;;;11.90;3.05;;;41.50;22.00;;;;;;4342720;32;20164;-30
2021/05/17 07:59:10;;;;;;;15.02;4.32;;;41.40;22.20;;;;;;4343505;33;20183;-32
2021/05/17 08:01:36;;;;;;;8.40;2.75;;;41.50;22.30;;;;;;4329564;33;20063;-30
2021/05/17 08:04:04;;;;;;;8.10;2.12;;;41.50;22.30;;;;;;4343746;33;20058;-30
2021/05/17 08:06:30;;;;;;;5.22;1.87;;;41.60;22.20;;;;;;4329666;33;20055;-30
2021/05/17 08:08:57;;;;;;;6.62;2.08;;;41.90;22.10;;;;;;4343554;33;20176;-30
2021/05/17 08:11:23;;;;;;;9.35;2.58;;;42.10;21.90;;;;;;4343170;33;20146;-31
2021/05/17 08:13:50;;;;;;;7.30;2.65;;;42.20;22.50;;;;;;4343140;33;20066;-36
2021/05/17 08:16:16;;;;;;;9.07;2.20;;;42.20;21.80;;;;;;4343547;33;20143;-36
2021/05/17 08:18:44;;;;;;;10.30;2.60;;;42.30;21.90;;;;;;4342790;33;20059;-36
2021/05/17 08:21:10;;;;;;;12.70;2.22;;;42.40;21.90;;;;;;4343481;33;20086;-34
2021/05/17 08:23:37;;;;;;;13.70;2.33;;;42.60;21.80;;;;;;4343493;33;20451;-32
2021/05/17 08:26:06;;;;;;;9.77;2.22;;;42.90;21.70;;;;;;4343541;33;20086;-31
2021/05/17 08:28:34;;;;;;;13.05;2.53;;;43.20;21.30;;;;;;4343169;33;20094;-31
2021/05/17 08:31:02;;;;;;;8.73;2.00;;;43.60;21.10;;;;;;4343267;33;20084;-30
2021/05/17 08:33:29;;;;;;;10.98;2.20;;;44.10;21.10;;;;;;4343154;33;20142;-32
2021/05/17 08:35:56;;;;;;;8.52;1.83;;;44.50;20.70;;;;;;4329769;33;20059;-32
2021/05/17 08:38:22;;;;;;;5.03;2.35;;;44.90;20.50;;;;;;4343153;33;20062;-31
2021/05/17 08:40:49;;;;;;;8.50;2.08;;;45.30;20.40;;;;;;4328652;33;20042;-29
2021/05/17 08:43:15;;;;;;;5.28;1.50;;;45.50;20.30;;;;;;4342988;33;20074;-34
2021/05/17 08:45:44;;;;;;;6.82;2.17;;;45.70;20.20;;;;;;4342631;33;20104;-30
2021/05/17 08:48:10;;;;;;;8.70;2.03;;;45.80;20.40;;;;;;4343082;33;20094;-31
2021/05/17 08:50:37;;;;;;;6.40;1.90;;;45.90;20.40;;;;;;4343421;33;20591;-31
2021/05/17 08:53:04;;;;;;;8.43;2.20;;;46.00;20.60;;;;;;4342905;33;20150;-31
2021/05/17 08:55:30;;;;;;;9.45;3.20;;;45.70;20.60;;;;;;4329394;33;20618;-31
2021/05/17 08:57:57;;;;;;;12.00;2.60;;;45.20;20.80;;;;;;4352492;32;20170;-32
2021/05/17 09:00:24;;;;;;;10.68;1.85;;;44.70;21.10;;;;;;4357643;32;20489;-31
2021/05/17 09:02:52;;;;;;;5.35;1.92;;;44.20;21.10;;;;;;4358072;32;20078;-32
2021/05/17 09:05:24;;;;;;;5.40;2.45;;;43.90;21.30;;;;;;4357874;32;20474;-33
2021/05/17 09:07:59;;;;;;;6.82;2.00;;;43.60;21.40;;;;;;4357680;32;20461;-31
2021/05/17 09:10:35;;;;;;;8.23;1.83;;;43.60;21.40;;;;;;4358099;32;20065;-31
2021/05/17 09:13:12;;;;;;;10.68;1.90;;;43.50;21.30;;;;;;4357844;32;20082;-31
2021/05/17 09:15:46;;;;;;;6.03;1.90;;;43.50;21.10;;;;;;4357817;32;20074;-32
2021/05/17 09:18:16;;;;;;;10.50;1.80;;;43.60;21.10;;;;;;4357442;32;20166;-32
2021/05/17 09:20:44;;;;;;;8.02;1.92;;;43.80;20.70;;;;;;4357726;32;20090;-31
2021/05/17 09:23:23;;;;;;;6.93;2.08;;;43.80;20.30;;;;;;4343949;32;20468;-30
2021/05/17 09:26:02;;;;;;;12.45;2.22;;;43.90;20.30;;;;;;4345439;32;20568;-31
2021/05/17 09:28:40;;;;;;;8.07;1.98;;;43.90;20.00;;;;;;4358181;32;20063;-30
2021/05/17 09:31:14;;;;;;;7.87;2.17;;;44.00;20.60;;;;;;4357568;32;20053;-32
2021/05/17 09:34:01;;;;;;;7.07;1.60;;;44.10;19.90;;;;;;4325465;33;20062;-32
2021/05/17 09:36:37;;;;;;;4.75;1.80;;;44.20;19.80;;;;;;4325745;33;20055;-31
2021/05/17 09:39:12;;;;;;;4.93;1.75;;;44.20;19.90;;;;;;4324962;33;20094;-31
2021/05/17 09:41:49;;;;;;;10.13;1.70;;;44.10;20.10;;;;;;4325712;33;20111;-31
2021/05/17 09:44:24;;;;;;;13.38;2.30;;;44.10;19.70;;;;;;4314299;33;20157;-34
2021/05/17 09:47:23;;;;;;;5.30;2.00;;;44.00;19.00;;;;;;4313388;33;20211;-31
2021/05/17 09:49:55;;;;;;;9.38;2.35;;;44.20;19.00;;;;;;4325331;33;20075;-32
2021/05/17 09:52:29;;;;;;;5.55;1.12;;;44.40;18.80;;;;;;4326598;33;20066;-31
2021/05/17 09:55:02;;;;;;;8.52;1.75;;;44.70;19.10;;;;;;4327934;33;20127;-32
2021/05/17 09:57:36;;;;;;;8.23;2.33;;;44.90;18.90;;;;;;4321539;33;20547;-36
2021/05/17 10:00:31;;;;;;;8.82;1.77;;;45.20;18.70;;;;;;4313244;33;20074;-32
2021/05/17 10:03:00;;;;;;;14.30;2.20;;;45.50;18.30;;;;;;4313177;33;20481;-31
2021/05/17 10:05:34;;;;;;;12.10;1.50;;;45.80;18.40;;;;;;4338947;33;20150;-31
2021/05/17 10:08:03;;;;;;;11.00;1.80;;;46.10;18.20;;;;;;4344854;33;20135;-31
2021/05/17 10:10:30;;;;;;;5.28;1.45;;;46.20;18.00;;;;;;4344949;33;20083;-31
2021/05/17 10:13:02;;;;;;;8.35;1.20;;;46.50;18.00;;;;;;4344995;33;20082;-32
2021/05/17 10:15:31;;;;;;;8.50;1.40;;;46.70;18.10;;;;;;4344426;33;20074;-33
2021/05/17 10:18:00;;;;;;;7.70;2.50;;;46.90;17.70;;;;;;4331144;33;20267;-31
2021/05/17 10:20:28;;;;;;;10.85;1.62;;;47.00;17.70;;;;;;4331801;33;20484;-32
2021/05/17 10:22:57;;;;;;;7.43;1.83;;;47.00;17.70;;;;;;4330896;33;20090;-35
2021/05/17 10:25:31;;;;;;;10.75;1.60;;;47.00;17.60;;;;;;4330916;33;20601;-31
2021/05/17 10:28:10;;;;;;;9.95;1.73;;;47.10;17.70;;;;;;4331080;33;20086;-31
2021/05/17 10:30:37;;;;;;;6.50;1.95;;;47.00;17.80;;;;;;4332082;33;20173;-31
2021/05/17 10:33:23;;;;;;;10.43;2.25;;;46.90;17.80;;;;;;4331103;33;20123;-31
2021/05/17 10:35:51;;;;;;;9.48;1.60;;;46.80;18.10;;;;;;4344398;33;20139;-30
2021/05/17 10:38:46;;;;;;;15.15;1.83;;;46.70;17.80;;;;;;4344780;33;20066;-31
2021/05/17 10:46:42;;;;;;;;;;;46.90;17.50;;;;;;4342789;33;20070;-31
2021/05/17 10:49:37;;;;;;;10.57;2.75;;;46.90;17.60;;;;;;4312458;33;20395;-34
2021/05/17 10:52:06;;;;;;;7.75;2.10;;;47.00;17.70;;;;;;4312463;33;20095;-31
2021/05/17 10:54:38;;;;;;;5.57;1.42;;;47.20;17.60;;;;;;4312380;33;20586;-34
2021/05/17 10:57:37;;;;;;;11.77;1.73;;;47.30;17.70;;;;;;4316570;33;20175;-32
2021/05/17 11:00:22;;;;;;;11.75;2.22;;;47.40;17.70;;;;;;4326782;33;20147;-31
2021/05/17 11:03:25;;;;;;;10.82;2.42;;;47.30;17.40;;;;;;4316466;33;20676;-31
2021/05/17 11:05:54;;;;;;;11.82;1.90;;;47.20;17.60;;;;;;4316480;33;20078;-32
2021/05/17 11:08:22;;;;;;;11.80;1.83;;;47.10;17.50;;;;;;4326969;33;20241;-30
2021/05/17 11:10:53;;;;;;;13.27;2.85;;;47.10;17.50;;;;;;4314945;33;20082;-35
2021/05/17 11:13:21;;;;;;;17.48;2.28;;;47.10;17.60;;;;;;4326891;33;20588;-31
2021/05/17 11:16:05;;;;;;;9.13;2.15;;;47.20;17.30;;;;;;4326564;33;20207;-32
2021/05/17 11:18:38;;;;;;;11.27;1.60;;;47.30;17.40;;;;;;4327226;33;20087;-33
2021/05/17 11:21:27;;;;;;;8.50;1.98;;;47.40;17.30;;;;;;4326771;33;20165;-32
2021/05/17 11:23:55;;;;;;;11.70;1.62;;;47.70;17.50;;;;;;4326639;33;20168;-30
2021/05/17 11:26:23;;;;;;;12.25;3.62;;;47.70;17.10;;;;;;4324180;33;20101;-31
2021/05/17 11:28:52;;;;;;;13.45;2.80;;;47.70;17.30;;;;;;4344018;32;20059;-30
2021/05/17 11:33:56;;;;;;;15.27;2.08;;;47.70;17.00;;;;;;4344432;32;20047;-32
2021/05/17 11:36:29;;;;;;;12.82;2.20;;;47.80;17.20;;;;;;4344078;32;20077;-31
2021/05/17 11:39:21;;;;;;;10.00;1.98;;;47.80;17.40;;;;;;4344102;32;20066;-31
2021/05/17 11:41:54;;;;;;;12.23;2.25;;;47.90;18.40;;;;;;4343628;32;20065;-33
2021/05/17 11:44:52;;;;;;;12.05;2.95;;;47.60;18.80;;;;;;4343684;32;20089;-32
2021/05/17 11:47:24;;;;;;;11.27;2.20;;;47.30;18.70;;;;;;4343847;32;20516;-34
2021/05/17 11:49:52;;;;;;;10.57;3.28;;;47.10;18.80;;;;;;4343829;32;20081;-32
2021/05/17 11:52:23;;;;;;;9.20;2.47;;;46.80;18.90;;;;;;4343598;32;20555;-33
2021/05/17 11:54:55;;;;;;;16.48;2.85;;;46.70;18.90;;;;;;4343899;32;20077;-31
2021/05/17 11:57:47;;;;;;;8.65;2.40;;;46.60;18.90;;;;;;4338132;32;20185;-33
2021/05/17 12:00:21;;;;;;;17.40;2.20;;;46.50;18.80;;;;;;4327447;33;20173;-31
2021/05/17 12:02:52;;;;;;;16.30;2.05;;;46.40;19.00;;;;;;4315866;33;20144;-33
2021/05/17 12:05:20;;;;;;;9.55;2.17;;;46.30;19.30;;;;;;4328707;33;20463;-30
2021/05/17 12:07:53;;;;;;;9.35;1.30;;;46.20;18.80;;;;;;4327545;33;20143;-35
2021/05/17 12:10:21;;;;;;;17.87;2.33;;;45.90;18.50;;;;;;4329118;33;20059;-30
2021/05/17 12:12:49;;;;;;;11.00;1.83;;;45.70;18.70;;;;;;4328864;33;20055;-31
2021/05/17 12:15:19;;;;;;;8.05;2.05;;;45.60;18.30;;;;;;4338276;32;20071;-32
2021/05/17 12:17:46;;;;;;;7.12;2.20;;;45.50;17.90;;;;;;4342901;33;20097;-34
2021/05/17 12:20:17;;;;;;;9.48;1.33;;;45.50;18.20;;;;;;4343330;33;20113;-34
2021/05/17 12:22:48;;;;;;;12.98;2.10;;;45.30;18.10;;;;;;4343424;33;20156;-33
2021/05/17 12:25:22;;;;;;;10.65;2.08;;;45.20;18.20;;;;;;4296059;33;20083;-36
2021/05/17 12:27:51;;;;;;;7.30;2.53;;;45.00;18.20;;;;;;4285410;33;20570;-31
2021/05/17 12:30:19;;;;;;;9.88;1.52;;;44.80;18.00;;;;;;4255922;33;20074;-32
2021/05/17 12:33:00;;;;;;;11.10;1.65;;;44.80;18.10;;;;;;4267552;33;20183;-31
2021/05/17 12:35:31;;;;;;;11.82;2.12;;;45.00;18.50;;;;;;4268171;33;20187;-32
2021/05/17 12:38:21;;;;;;;6.87;1.50;;;45.00;18.10;;;;;;4268112;33;20080;-30
2021/05/17 12:40:51;;;;;;;10.60;2.05;;;45.10;18.00;;;;;;4267859;33;20536;-34
2021/05/17 12:43:21;;;;;;;12.00;1.67;;;45.20;18.30;;;;;;4267746;33;20527;-32
2021/05/17 12:45:48;;;;;;;9.85;1.60;;;45.20;18.40;;;;;;4255924;33;20516;-30
2021/05/17 12:48:25;;;;;;;8.18;2.15;;;45.20;18.40;;;;;;4267726;33;20118;-32
2021/05/17 12:50:54;;;;;;;10.90;1.70;;;45.00;18.30;;;;;;4256376;33;20076;-35
2021/05/17 12:53:24;;;;;;;14.07;1.92;;;44.90;18.50;;;;;;4267974;33;20084;-32
2021/05/17 12:55:55;;;;;;;9.35;1.70;;;44.80;18.50;;;;;;4281924;33;20075;-32
2021/05/17 12:58:40;;;;;;;5.10;1.85;;;44.60;18.40;;;;;;4323239;33;20078;-31
2021/05/17 13:01:17;;;;;;;8.55;1.73;;;44.60;18.50;;;;;;4325943;33;20075;-33
2021/05/17 13:03:46;;;;;;;8.35;1.73;;;44.50;18.60;;;;;;4325268;33;20083;-32
2021/05/17 13:06:29;;;;;;;10.70;1.62;;;44.70;18.40;;;;;;4325539;33;20083;-31
2021/05/17 13:09:17;;;;;;;14.10;2.33;;;44.90;18.40;;;;;;4357283;32;20092;-31
2021/05/17 13:11:44;;;;;;;12.25;1.80;;;45.00;18.30;;;;;;4357883;32;20171;-31
2021/05/17 13:14:14;;;;;;;8.73;1.70;;;45.20;18.30;;;;;;4357242;32;20175;-32
2021/05/17 13:16:53;;;;;;;7.62;1.50;;;45.20;18.20;;;;;;4357675;32;20070;-33
2021/05/17 13:19:43;;;;;;;11.50;1.75;;;45.20;18.00;;;;;;4357752;32;20071;-31
2021/05/17 13:30:49;;;;;;;15.43;2.22;;;45.20;18.30;;;;;;4360308;32;20063;-32